Offutt Air Force Base Omaha US
ICAO: KOFF
IATA: OFF
Category: Medium
Scheduled Services: No

Elevation: 1052 ft
TransAlt. 18000 ft.

Airport Communications:
OMAHA APP/DEP:118
ATIS:126.025
GND:121.7
PMSV METRO:22.74
COMD POST:31.1
PTD:37.94
TWR:123.7

KOFF Zoom In..

Runways:

(A) RW 12 length 11702 ft width 150 ft
ILS 111.70 / hdg 124

(B) RW 30 length 11702 ft width 150 ft
ILS 109.50 / hdg 304

Location; KOFF
Day. 29 / Time. 15.56 Zulu
* Altimeter: 30.25
* Temperature: 03° c. 37.4°f.
* Wind from: 360° Speed 19 kn with Gusts up to 28 kn.
Dewpoint: -04° c.
Visibility: 10 Statute Miles.
Clouds: Scattered 2700 ft.

KOFF 291556Z AUTO 36019G28KT 10SM SCT027 03/M04 A3025 RMK AO2 PK WND 34035/51 SLP259 T00291043 $

Going to: --> -->


Wind From 360°
Speed 19 kn.

 
 
jpsmedia worldairports.se 2020   terms of use